LGHI/JKH METAR and TAF weather

Enter ICAO airport designator
Station Type Date Time Source
LGHI METAR 2022/01/18 05:50 UTC NOAA

LGHI 180550Z 33007KT 270V010 9999 SCT020 12/04 Q1017


Station Type Date Time Source
LGHI Decoded METAR 2022/01/18 05:50 UTC NOAA

Chios Airport , Greece (LGHI) 38-20N 026-08E 4M
Jan 18, 2022 - 12:50 AM EST / 2022.01.18 0550 UTC
Wind: from the NNW (330 degrees) at 8 MPH (7 KT) (direction variable):0
Visibility: greater than 7 mile(s):0
Sky conditions: partly cloudy
Temperature: 53 F (12 C)
Dew Point: 39 F (4 C)
Relative Humidity: 57%
Pressure (altimeter): 30.03 in. Hg (1017 hPa)
ob: LGHI 180550Z 33007KT 270V010 9999 SCT020 12/04 Q1017
cycle: 6

Station Type Date Time Source
LGHI TAF 2012/09/21 03:06 UTC NOAA

TAF TAF LGHI 210200Z 2103/2115 VRB05KT 9999 SCT020 PROB30
TEMPO 2103/2106 7000 RA SCT018 BKN030
BECMG 2103/2105 30018KT

Example: see airport list